This is the latest recevied weather packets stored in our database for station/object KA5FVT. If no packets are shown the sender has not sent any weather packets the latest 10 day(s).
| Time | Temp. | Humidity | Pressure | Rain* | Wind** | Luminosity | Snow |
|---|---|---|---|---|---|---|---|
| 1777102166 | 24.44° C | 89% | 1006.8 hPa | 0 mm | - | - | - |
| 1777100965 | 23.89° C | 90% | 1006.9 hPa | 0 mm | - | - | - |
| 1777099166 | 23.89° C | 90% | 1006.7 hPa | 0 mm | - | - | - |
| 1777096766 | 23.89° C | 90% | 1006.9 hPa | 0 mm | - | - | - |
| 1777095266 | 23.89° C | 90% | 1006.7 hPa | 0 mm | - | - | - |
| 1777094066 | 23.89° C | 89% | 1006.5 hPa | 0 mm | - | - | - |
| 1777093465 | 23.89° C | 89% | 1006.5 hPa | 0 mm | - | - | - |
| 1777091369 | 24.44° C | 87% | 1006.6 hPa | 0 mm | - | - | - |
| 1777091069 | 24.44° C | 87% | 1006.5 hPa | 0 mm | - | - | - |
| 1777090168 | 25° C | 86% | 1006.7 hPa | 0 mm | - | - | - |
| 1777089569 | 25° C | 85% | 1006.9 hPa | 0 mm | - | - | - |
| 1777087766 | 25° C | 84% | 1006.7 hPa | 0 mm | - | - | - |
| 1777086866 | 25.56° C | 83% | 1006.7 hPa | 0 mm | - | - | - |
| 1777086266 | 25.56° C | 82% | 1006.6 hPa | 0 mm | - | - | - |
| 1777082969 | 26.11° C | 80% | 1006 hPa | 0 mm | - | - | - |
| 1777082068 | 26.11° C | 80% | 1005.8 hPa | 0 mm | - | - | - |
| 1777081466 | 26.67° C | 79% | 1005.7 hPa | 0 mm | - | - | - |
| 1777073966 | 28.89° C | 71% | 1005.1 hPa | 0 mm | - | - | - |
| 1777073365 | 29.44° C | 70% | 1005.2 hPa | 0 mm | - | - | - |
| 1777067666 | 29.44° C | 70% | 1005.5 hPa | 0 mm | - | - | - |
| 1777064665 | 29.44° C | 69% | 1006 hPa | 0 mm | - | - | - |
| 1777062869 | 29.44° C | 68% | 1006.2 hPa | 0 mm | - | - | - |
| 1777060766 | 29.44° C | 68% | 1006.5 hPa | 0 mm | - | - | - |
| 1777058665 | 28.89° C | 70% | 1006.8 hPa | 0 mm | - | - | - |
| 1777057765 | 29.44° C | 69% | 1007.1 hPa | 0 mm | - | - | - |
* Rain latest hour (hover to see other rain measurements)
** Current wind speed in m/s (hover to see current wind gust speed)